createdAt,value
2019-06-27T00:00:51.272Z,91.60
2019-06-27T00:03:21.699Z,91.40
2019-06-27T00:05:52.147Z,91.60
2019-06-27T00:08:22.897Z,91.80
2019-06-27T00:10:53.389Z,92.00
2019-06-27T00:13:23.797Z,92.00
2019-06-27T00:15:54.252Z,92.00
2019-06-27T00:18:24.685Z,92.20
2019-06-27T00:20:58.451Z,92.40
2019-06-27T00:23:28.896Z,92.50
2019-06-27T00:25:59.365Z,92.60
2019-06-27T00:28:29.775Z,92.50
2019-06-27T00:31:00.279Z,92.50
2019-06-27T00:33:30.738Z,92.50
2019-06-27T00:36:01.246Z,92.60
2019-06-27T00:38:31.651Z,92.70
2019-06-27T00:41:02.262Z,92.70
2019-06-27T00:43:32.670Z,92.70
2019-06-27T00:46:03.132Z,93.20
2019-06-27T00:48:33.594Z,93.20
2019-06-27T00:51:04.047Z,93.20
2019-06-27T00:53:34.513Z,93.20
2019-06-27T00:56:04.926Z,93.00
2019-06-27T00:58:35.405Z,93.10
2019-06-27T01:01:06.012Z,92.80
2019-06-27T01:03:36.517Z,93.00
2019-06-27T01:06:06.916Z,92.80
2019-06-27T01:08:37.384Z,92.60
2019-06-27T01:11:08.124Z,92.50
2019-06-27T01:13:38.596Z,92.60
2019-06-27T01:16:09.033Z,92.40
2019-06-27T01:18:39.495Z,92.40
2019-06-27T01:21:09.884Z,92.50
2019-06-27T01:23:40.322Z,92.80
2019-06-27T01:26:10.741Z,92.40
2019-06-27T01:28:41.249Z,92.80
2019-06-27T01:31:11.791Z,93.10
2019-06-27T01:33:42.471Z,93.10
2019-06-27T01:36:12.913Z,93.20
2019-06-27T01:38:43.364Z,93.40
2019-06-27T01:41:13.778Z,93.50
2019-06-27T01:43:44.281Z,93.60
2019-06-27T01:46:14.971Z,93.70
2019-06-27T01:48:45.492Z,93.50
2019-06-27T01:51:15.994Z,93.70
2019-06-27T01:53:46.605Z,93.60
2019-06-27T01:56:17.030Z,93.80
2019-06-27T01:58:47.523Z,94.20
2019-06-27T02:01:17.941Z,94.00
2019-06-27T02:03:48.492Z,94.00
2019-06-27T02:06:18.904Z,94.40
2019-06-27T02:08:49.632Z,94.90
2019-06-27T02:11:20.018Z,95.10
2019-06-27T02:13:50.566Z,94.90
2019-06-27T02:16:20.968Z,95.30
2019-06-27T02:18:51.521Z,95.20
2019-06-27T02:21:21.921Z,95.30
2019-06-27T02:23:52.495Z,95.10
2019-06-27T02:26:22.906Z,95.30
2019-06-27T02:28:53.452Z,95.20
2019-06-27T02:31:23.970Z,95.20
2019-06-27T02:33:54.423Z,95.40
2019-06-27T02:36:24.853Z,95.60
2019-06-27T02:38:55.401Z,95.60
2019-06-27T02:41:27.332Z,95.40
2019-06-27T02:43:58.102Z,95.60
2019-06-27T02:46:28.560Z,95.80
2019-06-27T02:48:59.068Z,95.90
2019-06-27T02:51:29.560Z,96.10
2019-06-27T02:53:59.976Z,96.10
2019-06-27T02:56:30.431Z,96.10
2019-06-27T02:59:00.944Z,96.20
2019-06-27T03:01:31.445Z,96.10
2019-06-27T03:04:02.025Z,96.10
2019-06-27T03:06:32.470Z,96.30
2019-06-27T03:09:02.989Z,96.40
2019-06-27T03:11:33.491Z,96.70
2019-06-27T03:14:02.775Z,96.60
2019-06-27T03:16:33.192Z,96.90
2019-06-27T03:19:04.010Z,97.10
2019-06-27T03:21:34.454Z,97.20
2019-06-27T03:24:04.887Z,97.30
2019-06-27T03:26:35.392Z,97.20
2019-06-27T03:29:05.867Z,97.40
2019-06-27T03:31:36.375Z,97.50
2019-06-27T03:34:06.809Z,97.30
2019-06-27T03:36:37.341Z,97.40
2019-06-27T03:39:07.913Z,97.40
2019-06-27T03:41:38.481Z,97.60
2019-06-27T03:44:08.907Z,97.50
2019-06-27T03:46:39.383Z,97.60
2019-06-27T03:49:09.779Z,97.70
2019-06-27T03:51:40.234Z,97.40
2019-06-27T03:54:10.662Z,97.70
2019-06-27T03:56:41.153Z,97.50
2019-06-27T03:59:13.666Z,97.60
2019-06-27T04:01:43.906Z,97.60
2019-06-27T04:04:14.317Z,97.60
2019-06-27T04:06:44.752Z,97.80
2019-06-27T04:09:15.179Z,97.50
2019-06-27T04:11:45.804Z,97.70
2019-06-27T04:14:16.301Z,97.50
2019-06-27T04:16:49.251Z,97.40
2019-06-27T04:19:18.963Z,97.50
2019-06-27T04:21:49.386Z,97.10
2019-06-27T04:24:19.981Z,96.90
2019-06-27T04:26:50.522Z,96.60
2019-06-27T04:29:33.629Z,96.60
2019-06-27T04:31:53.272Z,96.70
2019-06-27T04:34:23.748Z,96.50
2019-06-27T04:36:54.175Z,95.90
2019-06-27T04:39:24.676Z,96.20
2019-06-27T04:41:55.210Z,95.60
2019-06-27T04:44:25.772Z,95.60
2019-06-27T04:46:56.981Z,95.30
2019-06-27T04:49:27.452Z,94.80
2019-06-27T04:51:58.049Z,95.10
2019-06-27T04:54:28.509Z,94.80
2019-06-27T04:56:58.926Z,94.80
2019-06-27T04:59:51.450Z,94.40
2019-06-27T05:02:04.529Z,94.00
2019-06-27T05:04:35.034Z,94.00
2019-06-27T05:07:05.656Z,93.70
2019-06-27T05:09:36.130Z,93.50
2019-06-27T05:12:06.998Z,93.50
2019-06-27T05:14:37.658Z,93.20
2019-06-27T05:17:08.246Z,93.00
2019-06-27T05:19:40.161Z,92.80
2019-06-27T05:22:10.828Z,92.40
2019-06-27T05:24:41.333Z,91.20
2019-06-27T05:27:12.120Z,89.80
2019-06-27T05:29:43.486Z,86.30
2019-06-27T05:32:14.037Z,83.20
2019-06-27T05:34:44.718Z,79.70
2019-06-27T05:37:16.196Z,78.60
2019-06-27T05:39:46.667Z,77.90
2019-06-27T05:42:17.377Z,76.50
2019-06-27T05:44:47.856Z,75.60
2019-06-27T05:47:18.302Z,74.60
2019-06-27T05:49:48.856Z,74.10
2019-06-27T05:52:19.298Z,74.60
2019-06-27T05:54:49.712Z,74.80
2019-06-27T05:57:20.170Z,74.90
2019-06-27T05:59:50.597Z,73.50
2019-06-27T06:02:21.042Z,72.40
2019-06-27T06:04:53.090Z,70.00
2019-06-27T06:07:23.511Z,67.00
2019-06-27T06:09:53.992Z,66.70
2019-06-27T06:12:24.573Z,66.20
2019-06-27T06:14:55.071Z,64.30
2019-06-27T06:17:25.579Z,60.90
2019-06-27T06:19:55.939Z,57.00
2019-06-27T06:22:26.371Z,55.60
2019-06-27T06:24:58.275Z,53.70
2019-06-27T06:27:29.270Z,52.70
2019-06-27T06:29:59.817Z,51.10
2019-06-27T06:32:30.458Z,50.60
2019-06-27T06:35:00.968Z,48.80
2019-06-27T06:37:31.571Z,47.00
2019-06-27T06:40:02.198Z,45.60
2019-06-27T06:42:32.926Z,45.40
2019-06-27T06:45:03.444Z,46.60
2019-06-27T06:47:33.959Z,45.40
2019-06-27T06:50:07.676Z,44.50
2019-06-27T06:52:39.653Z,38.90
2019-06-27T06:55:10.020Z,38.80
2019-06-27T06:57:40.488Z,39.20
2019-06-27T07:00:12.786Z,39.70
2019-06-27T07:02:43.276Z,36.70
2019-06-27T07:05:13.982Z,37.80
2019-06-27T07:07:44.419Z,37.20
2019-06-27T07:10:15.226Z,39.00
2019-06-27T07:12:45.790Z,40.40
2019-06-27T07:15:16.834Z,41.60
2019-06-27T07:17:47.287Z,41.60
2019-06-27T07:20:18.508Z,39.00
2019-06-27T07:22:49.022Z,36.90
2019-06-27T07:25:19.695Z,32.40
2019-06-27T07:27:50.252Z,30.60
2019-06-27T07:30:20.909Z,30.50
2019-06-27T07:32:54.680Z,30.50
2019-06-27T07:35:25.235Z,29.00
2019-06-27T07:37:55.959Z,28.10
2019-06-27T07:40:26.601Z,28.40
2019-06-27T07:42:57.085Z,27.80
2019-06-27T07:45:27.524Z,26.20
2019-06-27T07:47:57.985Z,26.20
2019-06-27T07:50:28.452Z,27.30
2019-06-27T07:52:58.933Z,26.50
2019-06-27T07:55:29.700Z,27.10
2019-06-27T07:58:00.156Z,26.40
2019-06-27T08:00:30.530Z,25.90
2019-06-27T08:03:01.194Z,25.50
2019-06-27T08:05:31.688Z,24.90
2019-06-27T08:08:02.146Z,24.90
2019-06-27T08:10:32.656Z,24.70
2019-06-27T08:13:03.153Z,24.40
2019-06-27T08:15:33.709Z,24.50
2019-06-27T08:18:04.285Z,24.60
2019-06-27T08:20:35.763Z,23.90
2019-06-27T08:23:07.466Z,23.90
2019-06-27T08:25:37.970Z,24.40
2019-06-27T08:28:08.435Z,23.60
2019-06-27T08:30:38.931Z,22.50
2019-06-27T08:33:09.459Z,22.70
2019-06-27T08:35:39.910Z,23.50
2019-06-27T08:38:10.571Z,23.00
2019-06-27T08:40:41.160Z,22.70
2019-06-27T08:43:11.698Z,22.40
2019-06-27T08:45:42.397Z,23.10
2019-06-27T08:48:13.046Z,21.80
2019-06-27T08:50:43.564Z,21.80
2019-06-27T08:53:14.364Z,21.20
2019-06-27T08:55:44.801Z,21.60
2019-06-27T08:58:15.293Z,21.80
2019-06-27T09:00:46.115Z,22.50
2019-06-27T09:03:16.762Z,21.90
2019-06-27T09:05:47.265Z,21.00
2019-06-27T09:08:17.690Z,21.50
2019-06-27T09:10:48.317Z,21.40
2019-06-27T09:13:18.726Z,21.20
2019-06-27T09:15:49.216Z,20.90
2019-06-27T09:18:22.081Z,20.90
2019-06-27T09:20:52.566Z,20.10
2019-06-27T09:23:23.029Z,20.40
2019-06-27T09:25:53.497Z,20.00
2019-06-27T09:28:24.183Z,20.00
2019-06-27T09:30:54.614Z,19.70
2019-06-27T09:33:25.313Z,19.90
2019-06-27T09:35:55.825Z,20.10
2019-06-27T09:38:26.214Z,20.20
2019-06-27T09:40:56.879Z,19.40
2019-06-27T09:43:27.350Z,18.90
2019-06-27T09:45:57.831Z,18.90
2019-06-27T09:48:28.224Z,18.90
2019-06-27T09:50:58.747Z,19.40
2019-06-27T09:53:29.344Z,18.10
2019-06-27T09:55:59.969Z,19.10
2019-06-27T09:58:30.439Z,19.40
2019-06-27T10:01:00.907Z,19.30
2019-06-27T10:03:31.486Z,18.40
2019-06-27T10:06:02.060Z,18.50
2019-06-27T10:08:32.511Z,18.60
2019-06-27T10:11:03.098Z,18.90
2019-06-27T10:13:33.886Z,19.80
2019-06-27T10:16:04.378Z,20.10
2019-06-27T10:18:34.918Z,20.70
2019-06-27T10:21:05.783Z,19.10
2019-06-27T10:23:36.389Z,20.00
2019-06-27T10:26:06.863Z,19.90
2019-06-27T10:28:37.613Z,21.20
2019-06-27T10:31:08.295Z,20.70
2019-06-27T10:33:38.971Z,21.40
2019-06-27T10:36:11.658Z,23.00
2019-06-27T10:38:42.863Z,23.80
2019-06-27T10:41:13.352Z,23.70
2019-06-27T10:43:43.837Z,25.20
2019-06-27T10:46:14.335Z,26.00
2019-06-27T10:48:44.870Z,27.40
2019-06-27T10:51:15.469Z,27.80
2019-06-27T10:53:45.849Z,28.50
2019-06-27T10:56:16.376Z,29.30
2019-06-27T10:58:46.846Z,30.00
2019-06-27T11:01:17.398Z,29.40
2019-06-27T11:03:49.819Z,32.00
2019-06-27T11:06:20.532Z,31.80
2019-06-27T11:08:51.015Z,31.80
2019-06-27T11:11:21.822Z,32.50
2019-06-27T11:13:58.677Z,33.60
2019-06-27T11:16:25.171Z,32.50
2019-06-27T11:18:55.611Z,32.20
2019-06-27T11:21:26.117Z,32.90
2019-06-27T11:23:56.491Z,33.20
2019-06-27T11:26:30.364Z,34.60
2019-06-27T11:29:03.873Z,33.50
2019-06-27T11:31:34.838Z,34.50
2019-06-27T11:34:06.712Z,35.20
2019-06-27T11:36:37.456Z,34.90
2019-06-27T11:39:09.196Z,35.10
2019-06-27T11:41:39.559Z,36.30
2019-06-27T11:44:10.027Z,36.60
2019-06-27T11:46:40.487Z,34.90
2019-06-27T11:49:11.127Z,36.80
2019-06-27T11:51:44.492Z,35.60
2019-06-27T11:54:15.006Z,34.80
2019-06-27T11:56:48.525Z,35.20
2019-06-27T11:59:19.059Z,35.20
2019-06-27T12:01:49.737Z,36.00
2019-06-27T12:04:26.068Z,35.10
2019-06-27T12:06:57.475Z,36.20
2019-06-27T12:09:28.294Z,36.40
2019-06-27T12:11:58.830Z,36.20
2019-06-27T12:14:29.311Z,36.10
2019-06-27T12:16:59.820Z,36.30
2019-06-27T12:19:30.318Z,35.70
2019-06-27T12:22:00.853Z,36.30
2019-06-27T12:24:31.383Z,35.10
2019-06-27T12:27:01.882Z,36.80
2019-06-27T12:29:32.323Z,36.10
2019-06-27T12:32:03.248Z,36.60
2019-06-27T12:34:33.998Z,37.10
2019-06-27T12:37:04.541Z,35.50
2019-06-27T12:39:42.342Z,35.70
2019-06-27T12:42:12.846Z,37.60
2019-06-27T12:44:43.330Z,37.90
2019-06-27T12:47:13.896Z,38.20
2019-06-27T12:50:00.745Z,37.60
2019-06-27T12:52:17.072Z,38.30
2019-06-27T12:54:47.775Z,37.80
2019-06-27T12:57:18.414Z,36.50
2019-06-27T12:59:49.137Z,36.90
2019-06-27T13:02:21.455Z,36.70
2019-06-27T13:04:52.355Z,37.10
2019-06-27T13:07:22.886Z,36.60
2019-06-27T13:09:53.305Z,36.00
2019-06-27T13:12:24.174Z,35.80
2019-06-27T13:14:54.713Z,36.40
2019-06-27T13:17:25.325Z,36.70
2019-06-27T13:19:56.041Z,36.80
2019-06-27T13:22:26.593Z,37.80
2019-06-27T13:24:59.968Z,36.30
2019-06-27T13:27:30.537Z,35.80
2019-06-27T13:30:01.273Z,35.80
2019-06-27T13:32:32.004Z,36.10
2019-06-27T13:35:03.331Z,36.50
2019-06-27T13:37:34.477Z,36.90
2019-06-27T13:40:07.400Z,36.00
2019-06-27T13:42:38.650Z,35.30
2019-06-27T13:45:09.958Z,36.30
2019-06-27T13:47:41.011Z,34.60
2019-06-27T13:50:13.664Z,36.50
2019-06-27T13:52:45.197Z,33.40
2019-06-27T13:55:16.169Z,35.20
2019-06-27T13:57:46.745Z,34.40
2019-06-27T14:00:27.161Z,34.50
2019-06-27T14:02:57.701Z,33.80
2019-06-27T14:05:28.152Z,33.90
2019-06-27T14:07:58.738Z,33.90
2019-06-27T14:10:31.678Z,33.70
2019-06-27T14:13:02.215Z,33.30
2019-06-27T14:15:32.757Z,32.20
2019-06-27T14:18:03.292Z,32.80
2019-06-27T14:20:33.789Z,30.70
2019-06-27T14:23:04.401Z,29.70
2019-06-27T14:25:36.615Z,30.30
2019-06-27T14:28:07.642Z,29.60
2019-06-27T14:30:38.107Z,29.40
2019-06-27T14:33:08.687Z,29.20
2019-06-27T14:35:39.469Z,29.40
2019-06-27T14:38:09.951Z,30.10
2019-06-27T14:40:40.728Z,29.80
2019-06-27T14:43:11.214Z,28.90
2019-06-27T14:45:41.891Z,28.20
2019-06-27T14:48:15.315Z,28.00
2019-06-27T14:50:45.905Z,29.50
2019-06-27T14:53:16.600Z,28.60
2019-06-27T14:55:47.165Z,28.70
2019-06-27T14:58:17.636Z,28.60
2019-06-27T15:00:49.108Z,28.00
2019-06-27T15:03:19.716Z,28.90
2019-06-27T15:05:50.338Z,27.80
2019-06-27T15:08:23.330Z,27.90
2019-06-27T15:10:53.923Z,26.10
2019-06-27T15:13:24.453Z,26.60
2019-06-27T15:16:10.639Z,26.30
2019-06-27T15:18:28.034Z,25.90
2019-06-27T15:20:58.891Z,24.80
2019-06-27T15:23:29.513Z,26.00
2019-06-27T15:26:00.323Z,25.90
2019-06-27T15:28:34.158Z,26.10
2019-06-27T15:31:03.637Z,26.30
2019-06-27T15:33:34.275Z,26.10
2019-06-27T15:36:04.899Z,26.70
2019-06-27T15:38:37.251Z,27.20
2019-06-27T15:41:07.968Z,26.90
2019-06-27T15:43:38.519Z,26.40
2019-06-27T15:46:09.180Z,25.90
2019-06-27T15:48:39.708Z,26.30
2019-06-27T15:51:10.323Z,26.80
2019-06-27T15:53:40.784Z,27.70
2019-06-27T15:56:11.329Z,27.40
2019-06-27T15:58:41.786Z,27.90
2019-06-27T16:01:12.403Z,28.70
2019-06-27T16:03:45.721Z,28.90
2019-06-27T16:06:17.298Z,27.50
2019-06-27T16:08:48.270Z,27.10
2019-06-27T16:11:18.793Z,27.80
2019-06-27T16:13:49.309Z,27.50
2019-06-27T16:16:19.841Z,27.70
2019-06-27T16:18:50.649Z,28.60
2019-06-27T16:21:22.488Z,28.30
2019-06-27T16:23:53.059Z,28.40
2019-06-27T16:26:23.533Z,28.00
2019-06-27T16:28:54.112Z,27.60
2019-06-27T16:31:24.625Z,28.80
2019-06-27T16:33:59.080Z,28.10
2019-06-27T16:36:29.626Z,28.50
2019-06-27T16:39:00.285Z,28.30
2019-06-27T16:41:30.746Z,28.40
2019-06-27T16:44:04.440Z,28.10
2019-06-27T16:46:34.966Z,27.90
2019-06-27T16:49:05.417Z,28.40
2019-06-27T16:51:35.883Z,27.90
2019-06-27T16:54:06.680Z,27.90
2019-06-27T16:56:37.285Z,27.80
2019-06-27T16:59:07.884Z,27.90
2019-06-27T17:01:38.651Z,27.50
2019-06-27T17:04:09.536Z,27.50
2019-06-27T17:06:42.721Z,27.70
2019-06-27T17:09:13.619Z,27.30
2019-06-27T17:11:44.369Z,27.90
2019-06-27T17:14:14.905Z,27.60
2019-06-27T17:16:45.445Z,27.40
2019-06-27T17:19:16.067Z,27.70
2019-06-27T17:21:46.788Z,27.50
2019-06-27T17:24:17.789Z,27.20
2019-06-27T17:26:48.374Z,28.20
2019-06-27T17:29:22.190Z,27.30
2019-06-27T17:31:52.622Z,27.90
2019-06-27T17:34:23.487Z,27.70
2019-06-27T17:36:58.039Z,28.20
2019-06-27T17:39:26.214Z,29.10
2019-06-27T17:41:56.870Z,29.00
2019-06-27T17:44:27.379Z,29.50
2019-06-27T17:46:58.078Z,30.00
2019-06-27T17:49:28.580Z,29.80
2019-06-27T17:52:01.972Z,29.90
2019-06-27T17:54:32.448Z,30.00
2019-06-27T17:57:02.937Z,29.90
2019-06-27T17:59:33.458Z,30.10
2019-06-27T18:02:04.271Z,31.30
2019-06-27T18:04:34.765Z,30.40
2019-06-27T18:07:14.443Z,31.90
2019-06-27T18:09:38.053Z,31.70
2019-06-27T18:12:08.588Z,31.80
2019-06-27T18:14:39.019Z,32.00
2019-06-27T18:17:09.722Z,32.50
2019-06-27T18:19:40.197Z,32.80
2019-06-27T18:22:10.720Z,32.60
2019-06-27T18:24:41.811Z,32.90
2019-06-27T18:27:18.694Z,33.10
2019-06-27T18:29:51.287Z,33.40
2019-06-27T18:32:23.557Z,33.40
2019-06-27T18:34:56.073Z,33.70
2019-06-27T18:37:30.095Z,33.90
2019-06-27T18:39:58.900Z,33.80
2019-06-27T18:42:32.191Z,33.50
2019-06-27T18:45:02.733Z,33.80
2019-06-27T18:47:33.229Z,34.00
2019-06-27T18:50:03.766Z,33.70
2019-06-27T18:52:37.413Z,33.60
2019-06-27T18:55:08.587Z,33.90
2019-06-27T18:57:39.069Z,34.90
2019-06-27T19:00:11.464Z,34.10
2019-06-27T19:02:43.337Z,35.80
2019-06-27T19:05:13.845Z,35.30
2019-06-27T19:07:46.250Z,35.10
2019-06-27T19:10:18.682Z,34.80
2019-06-27T19:12:49.342Z,34.30
2019-06-27T19:15:19.821Z,34.00
2019-06-27T19:17:50.435Z,34.30
2019-06-27T19:20:39.862Z,34.40
2019-06-27T19:23:27.904Z,34.90
2019-06-27T19:26:00.778Z,36.00
2019-06-27T19:28:31.618Z,37.10
2019-06-27T19:31:02.329Z,35.90
2019-06-27T19:33:33.544Z,36.30
2019-06-27T19:36:04.404Z,35.60
2019-06-27T19:38:36.617Z,35.90
2019-06-27T19:41:07.810Z,36.00
2019-06-27T19:43:38.521Z,37.40
2019-06-27T19:46:09.336Z,36.80
2019-06-27T19:48:40.393Z,36.00
2019-06-27T19:51:11.276Z,36.50
2019-06-27T19:53:43.806Z,35.50
2019-06-27T19:56:14.525Z,36.00
2019-06-27T19:58:45.303Z,35.50
2019-06-27T20:01:16.043Z,36.70
2019-06-27T20:03:46.880Z,37.30
2019-06-27T20:06:17.403Z,37.30
2019-06-27T20:08:50.074Z,38.40
2019-06-27T20:11:20.690Z,37.80
2019-06-27T20:13:52.730Z,38.30
2019-06-27T20:16:23.179Z,39.40
2019-06-27T20:18:53.722Z,39.50
2019-06-27T20:21:25.003Z,39.00
2019-06-27T20:23:55.574Z,39.30
2019-06-27T20:26:26.063Z,40.40
2019-06-27T20:28:56.486Z,40.00
2019-06-27T20:31:26.945Z,39.70
2019-06-27T20:33:57.562Z,40.40
2019-06-27T20:36:27.980Z,41.40
2019-06-27T20:38:58.547Z,41.60
2019-06-27T20:41:29.526Z,41.50
2019-06-27T20:44:00.106Z,41.60
2019-06-27T20:46:32.185Z,42.00
2019-06-27T20:49:06.940Z,42.20
2019-06-27T20:51:37.229Z,42.30
2019-06-27T20:54:07.788Z,43.20
2019-06-27T20:56:38.244Z,42.80
2019-06-27T20:59:08.772Z,43.50
2019-06-27T21:01:39.358Z,44.20
2019-06-27T21:04:09.803Z,44.10
2019-06-27T21:06:41.736Z,43.50
2019-06-27T21:09:14.725Z,44.30
2019-06-27T21:11:48.047Z,45.50
2019-06-27T21:14:18.550Z,45.60
2019-06-27T21:16:49.020Z,45.90
2019-06-27T21:19:19.671Z,46.50
2019-06-27T21:21:52.993Z,45.90
2019-06-27T21:24:31.635Z,47.00
2019-06-27T21:27:02.148Z,48.00
2019-06-27T21:29:34.557Z,48.60
2019-06-27T21:32:05.208Z,48.60
2019-06-27T21:34:35.703Z,48.80
2019-06-27T21:37:06.222Z,49.40
2019-06-27T21:39:36.611Z,49.00
2019-06-27T21:42:07.125Z,49.60
2019-06-27T21:44:38.622Z,49.10
2019-06-27T21:47:09.175Z,49.90
2019-06-27T21:49:39.670Z,49.10
2019-06-27T21:52:10.217Z,49.90
2019-06-27T21:54:40.863Z,50.30
2019-06-27T21:57:11.465Z,51.20
2019-06-27T21:59:41.890Z,51.50
2019-06-27T22:02:12.404Z,50.60
2019-06-27T22:04:42.826Z,51.40
2019-06-27T22:07:14.866Z,52.10
2019-06-27T22:09:45.365Z,52.10
2019-06-27T22:12:16.957Z,52.50
2019-06-27T22:14:47.652Z,52.50
2019-06-27T22:17:18.228Z,52.80
2019-06-27T22:19:48.963Z,52.90
2019-06-27T22:22:19.423Z,53.40
2019-06-27T22:24:50.213Z,55.30
2019-06-27T22:27:20.668Z,53.80
2019-06-27T22:29:51.209Z,54.00
2019-06-27T22:32:23.295Z,53.70
2019-06-27T22:34:53.700Z,55.80
2019-06-27T22:37:26.000Z,54.80
2019-06-27T22:40:14.502Z,54.80
2019-06-27T22:43:04.380Z,55.50
2019-06-27T22:45:52.672Z,55.70
2019-06-27T22:48:23.512Z,55.60
2019-06-27T22:51:01.981Z,56.10
2019-06-27T22:53:35.805Z,56.50
2019-06-27T22:56:06.646Z,57.80
2019-06-27T22:58:37.334Z,58.00
2019-06-27T23:01:07.810Z,57.60
2019-06-27T23:03:38.278Z,57.30
2019-06-27T23:06:08.906Z,57.40
2019-06-27T23:08:39.359Z,58.20
2019-06-27T23:11:09.819Z,57.70
2019-06-27T23:13:40.303Z,57.60
2019-06-27T23:16:10.757Z,58.00
2019-06-27T23:18:42.031Z,59.60
2019-06-27T23:21:12.927Z,58.80
2019-06-27T23:23:43.589Z,59.00
2019-06-27T23:26:14.011Z,59.80
2019-06-27T23:28:44.567Z,60.40
2019-06-27T23:31:14.982Z,60.50
2019-06-27T23:33:45.614Z,61.70
2019-06-27T23:36:16.287Z,61.10
2019-06-27T23:38:46.788Z,61.90
2019-06-27T23:41:17.201Z,62.40
2019-06-27T23:43:47.625Z,63.40
2019-06-27T23:46:35.941Z,63.10
2019-06-27T23:49:06.402Z,63.10
2019-06-27T23:51:36.843Z,62.90
2019-06-27T23:54:07.452Z,63.90
2019-06-27T23:56:40.623Z,64.10
2019-06-27T23:59:10.252Z,66.20
